Time;durP1;ratioP1;P1;durP2;ratioP2;P2;SDS_P1;SDS_P2;PMS_P1;PMS_P2;Temp;Humidity;BMP_temperature;BMP_pressure;BME280_temperature;BME280_humidity;BME280_pressure;Samples;Min_cycle;Max_cycle;Signal;HPM_P1;HPM_P2
2022/09/27 00:01:12;;;;;;;;;12.00;12.00;;;25.81;100062.22;;;;117527;1189;25079;-62
2022/09/27 00:03:41;;;;;;;;;12.33;12.00;;;25.80;100064.23;;;;117543;1187;25762;-62
2022/09/27 00:06:14;;;;;;;;;16.00;13.00;;;25.81;100066.52;;;;117538;1189;25349;-62
2022/09/27 00:08:42;;;;;;;;;10.75;10.25;;;25.80;100059.98;;;;117612;1188;25219;-62
2022/09/27 00:11:17;;;;;;;;;12.25;12.25;;;25.81;100054.65;;;;117499;1188;24968;-62
2022/09/27 00:13:45;;;;;;;;;10.25;10.25;;;25.79;100046.92;;;;117520;1187;24991;-62
2022/09/27 00:16:14;;;;;;;;;12.75;12.75;;;25.81;100039.41;;;;117501;1188;25551;-62
2022/09/27 00:18:43;;;;;;;;;15.75;13.00;;;25.79;100034.64;;;;117557;1189;25157;-62
2022/09/27 00:21:12;;;;;;;;;15.75;15.75;;;25.79;100031.16;;;;117539;1189;24994;-62
2022/09/27 00:23:40;;;;;;;;;17.33;15.67;;;25.78;100031.88;;;;117938;1187;25077;-63
2022/09/27 00:26:13;;;;;;;;;13.33;12.67;;;25.79;100031.61;;;;117513;1189;25683;-64
2022/09/27 00:28:41;;;;;;;;;11.67;11.67;;;25.79;100028.52;;;;117510;1188;25040;-68
2022/09/27 00:31:19;;;;;;;;;11.75;11.50;;;25.79;100015.60;;;;117496;1188;24867;-68
2022/09/27 00:33:49;;;;;;;;;12.25;12.25;;;25.77;100009.64;;;;117915;1187;25142;-67
2022/09/27 00:36:19;;;;;;;;;14.50;12.50;;;25.80;100009.91;;;;117648;1187;25070;-64
2022/09/27 00:38:48;;;;;;;;;15.00;12.67;;;25.81;100006.47;;;;117556;1189;25511;-65
2022/09/27 00:41:21;;;;;;;;;12.75;12.75;;;25.81;99997.70;;;;117381;1187;25070;-64
2022/09/27 00:43:58;;;;;;;;;11.25;11.25;;;25.81;99995.98;;;;117558;1186;24763;-70
2022/09/27 00:46:44;;;;;;;;;13.50;12.75;;;25.82;100001.10;;;;117554;1188;24815;-66
2022/09/27 00:49:26;;;;;;;;;13.25;12.75;;;25.82;100003.59;;;;117925;1187;24944;-63
2022/09/27 00:52:15;;;;;;;;;12.50;11.00;;;25.83;100002.05;;;;117874;1187;25355;-62
2022/09/27 00:54:46;;;;;;;;;12.33;11.67;;;25.81;99997.77;;;;117476;1188;25297;-62
2022/09/27 00:57:15;;;;;;;;;11.25;11.00;;;25.81;99997.04;;;;117492;1187;25485;-62
2022/09/27 00:59:48;;;;;;;;;13.25;12.75;;;25.78;99994.27;;;;117453;1187;24724;-62
2022/09/27 01:02:16;;;;;;;;;12.75;12.50;;;25.77;99988.73;;;;117561;1188;25637;-62
2022/09/27 01:04:46;;;;;;;;;10.25;9.00;;;25.76;99982.52;;;;117495;1188;25429;-62
2022/09/27 01:07:15;;;;;;;;;10.50;10.25;;;25.76;99977.06;;;;117524;1189;24862;-62
2022/09/27 01:09:43;;;;;;;;;14.00;12.75;;;25.75;99967.31;;;;117536;1187;25792;-62
2022/09/27 01:12:24;;;;;;;;;12.67;12.00;;;25.75;99960.25;;;;117536;1188;24825;-62
2022/09/27 01:15:00;;;;;;;;;13.00;13.00;;;25.74;99958.05;;;;117536;1186;25011;-62
2022/09/27 01:18:02;;;;;;;;;14.50;12.50;;;25.74;99960.85;;;;117529;1188;25303;-61
2022/09/27 01:21:09;;;;;;;;;12.00;12.00;;;25.78;99963.20;;;;117502;1188;24735;-62
2022/09/27 01:24:05;;;;;;;;;11.25;11.25;;;25.84;99964.16;;;;117136;1193;25018;-62
2022/09/27 01:26:52;;;;;;;;;10.33;10.00;;;25.85;99959.89;;;;117934;1187;24775;-61
2022/09/27 01:30:05;;;;;;;;;10.00;10.00;;;25.81;99957.83;;;;117490;1186;24754;-63
2022/09/27 01:33:14;;;;;;;;;13.00;11.67;;;25.81;99960.86;;;;117129;1192;25410;-62
2022/09/27 01:36:00;;;;;;;;;11.25;9.25;;;25.86;99956.93;;;;117934;1187;24905;-62
2022/09/27 01:38:36;;;;;;;;;13.75;13.00;;;25.84;99953.48;;;;117503;1188;24997;-63
2022/09/27 01:41:20;;;;;;;;;16.00;13.00;;;25.80;99951.84;;;;117507;1188;25415;-63
2022/09/27 01:44:23;;;;;;;;;11.50;11.25;;;25.78;99952.36;;;;117507;1187;25377;-62
2022/09/27 01:46:54;;;;;;;;;10.00;10.00;;;25.80;99946.05;;;;117590;1188;25526;-62
2022/09/27 01:50:01;;;;;;;;;16.00;12.75;;;25.79;99945.69;;;;117941;1186;24758;-62
2022/09/27 01:52:54;;;;;;;;;14.00;12.00;;;25.81;99940.66;;;;117724;1186;25119;-62
2022/09/27 01:55:24;;;;;;;;;13.00;11.67;;;25.86;99934.38;;;;117506;1188;25282;-62
2022/09/27 01:58:02;;;;;;;;;12.75;11.50;;;25.88;99929.65;;;;117933;1188;25285;-63
2022/09/27 02:00:30;;;;;;;;;14.67;14.00;;;25.85;99927.83;;;;117565;1188;24914;-59
2022/09/27 02:03:16;;;;;;;;;15.25;14.25;;;25.83;99926.65;;;;117533;1188;25637;-62
2022/09/27 02:05:49;;;;;;;;;13.75;13.75;;;25.83;99926.66;;;;117905;1188;25018;-61
2022/09/27 02:08:34;;;;;;;;;16.75;13.25;;;25.86;99919.33;;;;117456;1188;24807;-63
2022/09/27 02:11:09;;;;;;;;;14.50;14.00;;;25.85;99915.80;;;;117853;1187;24906;-61
2022/09/27 02:13:47;;;;;;;;;12.75;12.75;;;25.86;99914.03;;;;117577;1189;24849;-63
2022/09/27 02:16:37;;;;;;;;;16.67;14.67;;;25.85;99924.71;;;;117475;1188;25538;-63
2022/09/27 02:19:31;;;;;;;;;13.75;13.50;;;25.84;99919.36;;;;117532;1188;24891;-63
2022/09/27 02:22:11;;;;;;;;;12.75;11.25;;;25.82;99924.83;;;;117935;1186;25365;-62
2022/09/27 02:24:45;;;;;;;;;12.33;12.33;;;25.80;99927.12;;;;117483;1189;24979;-63
2022/09/27 02:27:23;;;;;;;;;18.00;17.00;;;25.78;99924.60;;;;117920;1186;24910;-61
2022/09/27 02:30:04;;;;;;;;;16.67;16.67;;;25.79;99922.65;;;;117530;1188;24907;-62
2022/09/27 02:32:33;;;;;;;;;16.25;15.75;;;25.82;99919.91;;;;117931;1186;25144;-61
2022/09/27 02:35:12;;;;;;;;;15.00;13.00;;;25.83;99907.75;;;;117779;1186;25587;-61
2022/09/27 02:37:40;;;;;;;;;11.75;11.75;;;25.83;99901.73;;;;117919;1187;26438;-61
2022/09/27 02:40:09;;;;;;;;;14.00;12.50;;;25.84;99892.96;;;;117954;1187;25720;-61
2022/09/27 02:42:38;;;;;;;;;11.75;11.75;;;25.82;99887.52;;;;117971;1186;25087;-61
2022/09/27 02:45:07;;;;;;;;;12.50;11.00;;;25.80;99888.84;;;;117543;1189;25585;-61
2022/09/27 02:47:57;;;;;;;;;15.75;13.25;;;25.79;99890.23;;;;117942;1187;25098;-61
2022/09/27 02:51:03;;;;;;;;;13.50;13.25;;;25.77;99884.61;;;;117916;1187;25409;-60
2022/09/27 02:54:10;;;;;;;;;16.75;15.75;;;25.74;99870.15;;;;117537;1187;25434;-61
2022/09/27 02:56:57;;;;;;;;;12.25;11.00;;;25.76;99855.81;;;;117462;1188;25501;-61
2022/09/27 02:59:41;;;;;;;;;12.00;11.50;;;25.78;99855.94;;;;117901;1186;25351;-61
2022/09/27 03:02:38;;;;;;;;;15.67;13.67;;;25.76;99859.33;;;;117899;1188;25608;-61
2022/09/27 03:05:12;;;;;;;;;10.00;10.00;;;25.79;99873.77;;;;117815;1188;25354;-61
2022/09/27 03:07:41;;;;;;;;;13.50;12.50;;;25.82;99884.70;;;;117505;1187;24772;-61
2022/09/27 03:10:19;;;;;;;;;16.00;16.00;;;25.82;99881.30;;;;117568;1187;25436;-61
2022/09/27 03:12:49;;;;;;;;;14.00;13.00;;;25.79;99884.71;;;;117926;1187;25704;-61
2022/09/27 03:15:17;;;;;;;;;14.75;13.50;;;25.80;99881.60;;;;117991;1188;25181;-60
2022/09/27 03:17:46;;;;;;;;;12.33;11.33;;;25.78;99873.45;;;;117502;1188;24798;-61
2022/09/27 03:20:14;;;;;;;;;11.50;11.50;;;25.76;99861.95;;;;117950;1186;24957;-60
2022/09/27 03:22:43;;;;;;;;;14.00;12.00;;;25.75;99871.10;;;;117562;1186;25266;-61
2022/09/27 03:25:12;;;;;;;;;16.00;12.75;;;25.74;99878.41;;;;117935;1188;25386;-61
2022/09/27 03:27:40;;;;;;;;;13.00;11.50;;;25.74;99876.29;;;;117484;1187;25639;-61
2022/09/27 03:30:09;;;;;;;;;13.00;13.00;;;25.72;99867.33;;;;117914;1187;25683;-60
2022/09/27 03:32:42;;;;;;;;;14.00;13.75;;;25.71;99858.62;;;;117541;1188;25228;-61
2022/09/27 03:35:12;;;;;;;;;17.50;16.75;;;25.72;99850.58;;;;117950;1188;25366;-61
2022/09/27 03:37:40;;;;;;;;;13.00;12.75;;;25.72;99844.90;;;;117953;1186;25593;-60
2022/09/27 03:40:10;;;;;;;;;15.75;14.25;;;25.72;99847.52;;;;117534;1189;24879;-61
2022/09/27 03:42:38;;;;;;;;;13.67;13.00;;;25.71;99844.65;;;;117959;1188;25696;-61
2022/09/27 03:45:07;;;;;;;;;16.00;13.67;;;25.70;99841.71;;;;117934;1186;25629;-61
2022/09/27 03:47:40;;;;;;;;;12.67;12.67;;;25.70;99847.48;;;;117967;1188;25121;-61
2022/09/27 03:50:09;;;;;;;;;15.75;15.25;;;25.70;99851.64;;;;117915;1187;25012;-60
2022/09/27 03:52:38;;;;;;;;;15.00;15.00;;;25.71;99852.53;;;;117942;1187;25644;-61
2022/09/27 03:55:07;;;;;;;;;16.00;15.50;;;25.70;99851.02;;;;117553;1188;25196;-61
2022/09/27 03:57:36;;;;;;;;;15.50;15.50;;;25.70;99856.05;;;;117909;1188;25488;-60
2022/09/27 04:00:07;;;;;;;;;16.00;15.00;;;25.70;99860.98;;;;117500;1187;25488;-62
2022/09/27 04:02:35;;;;;;;;;18.00;17.50;;;25.70;99863.67;;;;117599;1188;25119;-62
2022/09/27 04:05:04;;;;;;;;;17.75;14.25;;;25.70;99858.04;;;;117512;1188;25164;-62
2022/09/27 04:07:33;;;;;;;;;13.33;13.33;;;25.69;99862.98;;;;117680;1187;25428;-62
2022/09/27 04:10:01;;;;;;;;;17.00;17.00;;;25.69;99861.72;;;;117612;1188;24736;-64
2022/09/27 04:12:29;;;;;;;;;16.00;15.50;;;25.70;99859.61;;;;117616;1188;24897;-66
2022/09/27 04:14:57;;;;;;;;;18.00;16.33;;;25.69;99854.73;;;;117893;1188;24806;-66
2022/09/27 04:17:26;;;;;;;;;16.00;16.00;;;25.68;99861.48;;;;117483;1189;25036;-60
2022/09/27 04:19:55;;;;;;;;;19.00;17.50;;;25.66;99861.02;;;;117741;1188;25564;-61
2022/09/27 04:22:23;;;;;;;;;15.75;15.75;;;25.66;99855.88;;;;117555;1189;25256;-61
2022/09/27 04:24:52;;;;;;;;;16.75;15.00;;;25.66;99845.83;;;;117556;1188;25751;-60
2022/09/27 04:27:21;;;;;;;;;18.00;15.33;;;25.65;99843.56;;;;117526;1188;25062;-61
2022/09/27 04:29:49;;;;;;;;;16.50;16.50;;;25.64;99839.14;;;;117473;1189;24951;-61
2022/09/27 04:32:18;;;;;;;;;15.67;15.00;;;25.64;99835.99;;;;117517;1188;25480;-61
2022/09/27 04:37:33;;;;;;;;;16.50;13.50;;;25.62;99832.46;;;;117567;1188;24686;-61
2022/09/27 04:40:03;;;;;;;;;15.50;15.50;;;25.62;99826.20;;;;117541;1188;25630;-60
2022/09/27 04:42:33;;;;;;;;;18.25;16.25;;;25.62;99821.98;;;;117946;1186;26127;-60
2022/09/27 04:45:01;;;;;;;;;14.75;14.25;;;25.62;99819.89;;;;117579;1189;25836;-61
2022/09/27 04:47:30;;;;;;;;;19.50;17.25;;;25.63;99809.96;;;;117518;1189;25429;-60
2022/09/27 04:49:58;;;;;;;;;16.25;16.25;;;25.61;99817.77;;;;117562;1187;26005;-61
2022/09/27 04:52:26;;;;;;;;;15.33;14.00;;;25.62;99819.98;;;;117565;1188;25042;-61
2022/09/27 04:54:54;;;;;;;;;16.50;16.00;;;25.62;99830.00;;;;117470;1188;25645;-61
2022/09/27 04:57:23;;;;;;;;;16.50;14.50;;;25.62;99826.59;;;;117436;1189;25582;-61
2022/09/27 04:59:51;;;;;;;;;17.67;16.33;;;25.62;99822.39;;;;117521;1188;25007;-62
2022/09/27 05:02:20;;;;;;;;;15.50;13.75;;;25.64;99825.31;;;;117667;1186;25649;-63
2022/09/27 05:04:48;;;;;;;;;17.00;15.75;;;25.63;99825.55;;;;117471;1189;24847;-62
2022/09/27 05:07:16;;;;;;;;;17.50;15.75;;;25.64;99823.69;;;;117900;1186;24695;-63
2022/09/27 05:09:45;;;;;;;;;19.00;17.00;;;25.63;99823.20;;;;117749;1189;25581;-63
2022/09/27 05:12:13;;;;;;;;;19.25;16.00;;;25.63;99819.37;;;;117932;1188;25163;-63
2022/09/27 05:14:42;;;;;;;;;21.50;16.25;;;25.62;99810.33;;;;117854;1188;24817;-63
2022/09/27 05:17:11;;;;;;;;;21.33;19.00;;;25.64;99806.48;;;;117887;1188;25133;-64
2022/09/27 05:19:39;;;;;;;;;21.50;19.00;;;25.65;99806.23;;;;118243;1188;24832;-64
2022/09/27 05:22:08;;;;;;;;;19.33;19.33;;;25.72;99811.88;;;;117980;1187;25229;-62
2022/09/27 05:24:37;;;;;;;;;15.00;15.00;;;25.79;99806.23;;;;117522;1189;25207;-62
2022/09/27 05:27:07;;;;;;;;;21.25;19.25;;;25.75;99802.80;;;;117926;1187;25261;-62
2022/09/27 05:29:36;;;;;;;;;21.67;21.00;;;25.71;99807.04;;;;117914;1187;25403;-62
2022/09/27 05:32:04;;;;;;;;;18.67;18.00;;;25.68;99805.84;;;;117508;1188;25337;-62
2022/09/27 05:34:33;;;;;;;;;18.33;16.00;;;25.65;99807.12;;;;117513;1188;24882;-61
2022/09/27 05:37:01;;;;;;;;;24.00;20.50;;;25.64;99802.10;;;;117913;1187;25481;-62
2022/09/27 05:39:29;;;;;;;;;21.00;18.67;;;25.63;99800.75;;;;117536;1188;25031;-62
2022/09/27 05:41:58;;;;;;;;;26.00;22.33;;;25.62;99802.60;;;;117566;1188;25616;-61
2022/09/27 05:44:26;;;;;;;;;21.25;20.25;;;25.61;99806.31;;;;117905;1187;25620;-62
2022/09/27 05:46:54;;;;;;;;;21.67;19.00;;;25.60;99811.37;;;;117534;1189;25144;-63
2022/09/27 05:49:23;;;;;;;;;18.00;16.67;;;25.60;99814.64;;;;117558;1188;25654;-61
2022/09/27 05:51:51;;;;;;;;;19.00;18.00;;;25.60;99814.45;;;;117544;1189;25520;-61
2022/09/27 05:54:20;;;;;;;;;18.00;17.67;;;25.60;99815.64;;;;117877;1187;25006;-61
2022/09/27 05:56:48;;;;;;;;;21.50;20.00;;;25.59;99813.00;;;;117520;1188;24869;-61
2022/09/27 05:59:17;;;;;;;;;24.67;23.00;;;25.58;99803.13;;;;117524;1187;25466;-61
2022/09/27 06:01:45;;;;;;;;;27.00;22.50;;;25.57;99799.59;;;;117509;1188;25516;-62
2022/09/27 06:04:14;;;;;;;;;23.00;20.00;;;25.56;99796.70;;;;117546;1188;24848;-62
2022/09/27 06:06:43;;;;;;;;;24.00;19.50;;;25.57;99793.98;;;;117898;1186;25608;-63
2022/09/27 06:09:13;;;;;;;;;27.00;23.00;;;25.56;99797.23;;;;117496;1188;24764;-62
2022/09/27 06:11:45;;;;;;;;;22.25;21.00;;;25.56;99805.02;;;;117574;1188;25502;-62
2022/09/27 06:14:14;;;;;;;;;24.67;20.67;;;25.56;99810.38;;;;117500;1189;25324;-63
2022/09/27 06:16:44;;;;;;;;;23.33;20.33;;;25.57;99804.10;;;;117557;1188;25782;-62
2022/09/27 06:19:12;;;;;;;;;19.33;18.67;;;25.57;99798.08;;;;117511;1188;24859;-63
2022/09/27 06:21:41;;;;;;;;;17.75;17.75;;;25.57;99797.17;;;;117507;1188;25619;-63
2022/09/27 06:24:09;;;;;;;;;22.75;21.00;;;25.55;99797.58;;;;117500;1188;25585;-63
2022/09/27 06:26:38;;;;;;;;;22.00;21.00;;;25.56;99800.85;;;;117527;1188;24862;-62
2022/09/27 06:29:06;;;;;;;;;22.67;22.33;;;25.55;99803.09;;;;117597;1188;25239;-62
2022/09/27 06:31:35;;;;;;;;;23.25;20.00;;;25.55;99804.86;;;;117583;1186;25324;-62
2022/09/27 06:34:03;;;;;;;;;21.50;17.50;;;25.56;99803.57;;;;117560;1188;25541;-63
2022/09/27 06:36:32;;;;;;;;;23.00;18.67;;;25.56;99801.66;;;;117487;1187;25527;-62
2022/09/27 06:39:01;;;;;;;;;19.67;19.67;;;25.55;99796.10;;;;117575;1187;25171;-62
2022/09/27 06:41:29;;;;;;;;;24.33;23.33;;;25.55;99795.93;;;;117510;1189;25248;-62
2022/09/27 06:43:58;;;;;;;;;19.33;18.33;;;25.55;99798.29;;;;117525;1188;24724;-62
2022/09/27 06:46:26;;;;;;;;;25.67;23.00;;;25.55;99807.19;;;;117470;1189;25678;-63
2022/09/27 06:48:55;;;;;;;;;26.33;25.00;;;25.55;99817.20;;;;117567;1187;25704;-62
2022/09/27 06:51:23;;;;;;;;;24.33;23.33;;;25.55;99825.68;;;;117515;1188;25056;-61
2022/09/27 06:53:52;;;;;;;;;20.75;20.00;;;25.55;99818.21;;;;117560;1186;25447;-61
2022/09/27 06:56:20;;;;;;;;;23.00;22.00;;;25.55;99812.86;;;;117473;1188;25078;-62
2022/09/27 07:01:35;;;;;;;;;25.33;24.00;;;25.53;99814.29;;;;117525;1186;25539;-62
2022/09/27 07:04:06;;;;;;;;;20.50;19.50;;;25.53;99802.80;;;;117531;1188;24775;-62
2022/09/27 07:06:35;;;;;;;;;22.00;19.33;;;25.54;99800.68;;;;117546;1188;25581;-63
2022/09/27 07:09:05;;;;;;;;;25.67;22.00;;;25.54;99798.52;;;;117535;1188;25704;-62
2022/09/27 07:11:37;;;;;;;;;18.33;18.33;;;25.54;99802.80;;;;117506;1188;25673;-62
2022/09/27 07:14:06;;;;;;;;;22.67;19.67;;;25.54;99805.27;;;;117510;1187;25340;-63
2022/09/27 07:16:35;;;;;;;;;19.25;19.25;;;25.55;99803.19;;;;117542;1188;24807;-62
2022/09/27 07:19:06;;;;;;;;;24.50;20.75;;;25.54;99802.67;;;;117566;1188;25895;-62
2022/09/27 07:21:35;;;;;;;;;22.25;19.00;;;25.55;99801.29;;;;117521;1187;24978;-62
2022/09/27 07:24:03;;;;;;;;;26.75;23.75;;;25.55;99801.73;;;;117465;1188;25352;-63
2022/09/27 07:26:32;;;;;;;;;22.33;21.00;;;25.54;99806.15;;;;117546;1188;25623;-62
2022/09/27 07:29:00;;;;;;;;;20.67;17.33;;;25.56;99804.27;;;;117553;1189;25350;-62
2022/09/27 07:31:29;;;;;;;;;23.00;20.50;;;25.57;99794.83;;;;117590;1188;25937;-62
2022/09/27 07:33:57;;;;;;;;;22.50;21.00;;;25.59;99789.07;;;;117535;1186;25249;-61
2022/09/27 07:36:26;;;;;;;;;23.00;20.25;;;25.60;99787.33;;;;117532;1186;25598;-63
2022/09/27 07:38:55;;;;;;;;;21.75;21.75;;;25.62;99788.09;;;;117488;1188;24973;-63
2022/09/27 07:41:24;;;;;;;;;20.67;20.00;;;25.63;99795.31;;;;117529;1188;25383;-64
2022/09/27 07:43:53;;;;;;;;;20.33;19.67;;;25.65;99798.59;;;;117595;1188;25425;-66
2022/09/27 07:46:21;;;;;;;;;23.00;16.50;;;25.68;99794.91;;;;117558;1189;25437;-63
2022/09/27 07:48:51;;;;;;;;;25.00;21.67;;;25.71;99784.91;;;;117562;1188;26517;-62
2022/09/27 07:51:20;;;;;;;;;25.33;22.00;;;25.72;99784.92;;;;117575;1186;25183;-63
2022/09/27 07:53:49;;;;;;;;;22.50;22.50;;;25.74;99781.80;;;;117606;1188;25230;-63
2022/09/27 07:56:17;;;;;;;;;18.75;18.00;;;25.75;99779.41;;;;117516;1190;25660;-62
2022/09/27 07:58:46;;;;;;;;;23.00;21.00;;;25.76;99781.54;;;;117484;1190;24872;-62
2022/09/27 08:01:15;;;;;;;;;21.33;19.67;;;25.75;99782.16;;;;117488;1190;25121;-62
2022/09/27 08:03:43;;;;;;;;;19.75;18.00;;;25.75;99783.35;;;;117504;1190;24740;-62
2022/09/27 08:06:12;;;;;;;;;15.75;15.75;;;25.75;99786.59;;;;117474;1190;25652;-63
2022/09/27 08:08:40;;;;;;;;;18.00;17.00;;;25.73;99789.98;;;;117500;1188;24979;-62
2022/09/27 08:11:14;;;;;;;;;25.75;20.50;;;25.72;99790.50;;;;117539;1188;25458;-62
2022/09/27 08:13:43;;;;;;;;;25.50;22.50;;;25.72;99785.86;;;;117525;1188;25167;-61
2022/09/27 08:16:13;;;;;;;;;22.00;21.25;;;25.72;99781.15;;;;117521;1188;25499;-60
2022/09/27 08:18:41;;;;;;;;;22.00;18.75;;;25.73;99787.55;;;;117496;1188;25432;-62
2022/09/27 08:21:10;;;;;;;;;21.50;20.50;;;25.73;99782.52;;;;117487;1188;25141;-62
2022/09/27 08:23:38;;;;;;;;;21.25;19.50;;;25.73;99781.27;;;;117487;1188;25016;-62
2022/09/27 08:26:07;;;;;;;;;18.00;17.00;;;25.73;99779.86;;;;117543;1188;25099;-62
2022/09/27 08:28:35;;;;;;;;;17.67;16.67;;;25.74;99780.83;;;;117526;1186;25500;-63
2022/09/27 08:31:04;;;;;;;;;21.00;18.33;;;25.74;99787.29;;;;117585;1188;24871;-64
2022/09/27 08:33:32;;;;;;;;;24.00;22.75;;;25.75;99792.21;;;;117508;1189;25153;-63
2022/09/27 08:36:11;;;;;;;;;26.00;22.00;;;25.75;99784.30;;;;117536;1189;24777;-68
2022/09/27 08:38:39;;;;;;;;;23.75;21.50;;;25.79;99783.77;;;;117503;1188;24875;-62
2022/09/27 08:41:32;;;;;;;;;19.75;18.00;;;25.81;99779.14;;;;117543;1189;25434;-60
2022/09/27 08:44:42;;;;;;;;;23.00;21.75;;;25.83;99768.21;;;;117841;1187;24922;-62
2022/09/27 08:47:17;;;;;;;;;20.25;20.25;;;25.87;99765.77;;;;117336;1189;25024;-62
2022/09/27 08:50:04;;;;;;;;;28.00;23.50;;;25.90;99764.88;;;;117522;1189;24789;-63
2022/09/27 08:52:42;;;;;;;;;23.00;21.67;;;25.88;99755.50;;;;117543;1188;25333;-63
2022/09/27 08:55:27;;;;;;;;;20.33;19.33;;;25.88;99761.66;;;;117526;1189;24751;-62
2022/09/27 08:57:57;;;;;;;;;18.50;16.50;;;25.90;99766.88;;;;117578;1188;24804;-63
2022/09/27 09:00:28;;;;;;;;;21.33;19.00;;;25.91;99766.13;;;;117552;1187;25466;-62
2022/09/27 09:02:57;;;;;;;;;20.00;16.50;;;25.91;99766.83;;;;117515;1189;25515;-62
2022/09/27 09:05:33;;;;;;;;;21.75;19.75;;;25.91;99761.35;;;;117561;1188;24750;-62
2022/09/27 09:08:29;;;;;;;;;17.50;15.75;;;25.91;99753.59;;;;117509;1189;25670;-62
2022/09/27 09:14:26;;;;;;;;;22.25;19.50;;;25.91;99743.19;;;;117905;1188;25495;-62
2022/09/27 09:17:27;;;;;;;;;19.00;18.00;;;25.92;99741.91;;;;117910;1186;25588;-62
2022/09/27 09:20:12;;;;;;;;;17.00;16.00;;;25.95;99738.73;;;;117524;1188;25156;-61
2022/09/27 09:23:04;;;;;;;;;19.25;18.25;;;25.98;99736.91;;;;117529;1187;24852;-62
2022/09/27 09:25:36;;;;;;;;;16.25;15.50;;;26.00;99729.03;;;;117937;1187;24826;-61
2022/09/27 09:28:23;;;;;;;;;18.00;15.50;;;26.00;99729.81;;;;117519;1187;24858;-62
2022/09/27 09:31:08;;;;;;;;;17.50;17.50;;;25.98;99731.49;;;;117510;1188;25394;-62
2022/09/27 09:33:40;;;;;;;;;15.33;13.67;;;25.97;99725.06;;;;117506;1188;25098;-61
2022/09/27 09:36:20;;;;;;;;;16.00;15.75;;;25.97;99725.37;;;;117925;1188;25549;-63
2022/09/27 09:38:59;;;;;;;;;16.75;15.25;;;25.97;99727.83;;;;117923;1187;25232;-63
2022/09/27 09:41:35;;;;;;;;;21.50;15.00;;;25.98;99731.09;;;;117515;1189;25638;-63
2022/09/27 09:44:14;;;;;;;;;19.00;16.00;;;25.98;99722.82;;;;117557;1188;24976;-62
2022/09/27 09:46:46;;;;;;;;;24.67;20.67;;;25.99;99721.34;;;;117539;1188;24789;-62
2022/09/27 09:49:19;;;;;;;;;16.75;16.75;;;25.99;99710.04;;;;117562;1188;24733;-62
2022/09/27 09:52:04;;;;;;;;;22.75;16.50;;;25.98;99705.47;;;;117554;1188;25551;-61
2022/09/27 09:55:08;;;;;;;;;17.50;16.00;;;25.97;99698.36;;;;117548;1188;25471;-62
2022/09/27 09:57:51;;;;;;;;;14.00;12.67;;;26.02;99687.34;;;;117440;1188;25195;-63
2022/09/27 10:00:20;;;;;;;;;14.75;14.25;;;26.04;99687.91;;;;117557;1188;25592;-63
2022/09/27 10:02:51;;;;;;;;;17.25;15.75;;;26.04;99687.23;;;;117512;1189;25320;-62
2022/09/27 10:05:23;;;;;;;;;16.00;14.00;;;26.00;99700.65;;;;117509;1187;25505;-62
2022/09/27 10:07:53;;;;;;;;;12.67;12.67;;;25.99;99707.58;;;;117529;1188;25026;-62
2022/09/27 10:10:22;;;;;;;;;12.75;12.75;;;25.98;99699.03;;;;117517;1189;25027;-62
2022/09/27 10:12:51;;;;;;;;;13.00;12.25;;;25.97;99697.77;;;;117549;1188;25608;-63
2022/09/27 10:15:22;;;;;;;;;15.25;14.50;;;25.96;99696.41;;;;117500;1188;24807;-62
2022/09/27 10:17:53;;;;;;;;;14.25;13.25;;;25.95;99695.67;;;;117530;1188;24821;-63
2022/09/27 10:20:33;;;;;;;;;18.00;16.50;;;25.95;99696.61;;;;117548;1188;24954;-62
2022/09/27 10:23:21;;;;;;;;;14.50;14.25;;;25.94;99693.58;;;;117945;1187;25194;-62
2022/09/27 10:25:58;;;;;;;;;14.33;13.67;;;25.96;99695.48;;;;117925;1186;24899;-62
2022/09/27 10:28:44;;;;;;;;;13.00;13.00;;;25.99;99690.61;;;;117546;1188;24965;-63
2022/09/27 10:31:16;;;;;;;;;13.75;12.50;;;25.98;99691.29;;;;117958;1187;24684;-63
2022/09/27 10:33:56;;;;;;;;;15.25;12.75;;;25.97;99691.83;;;;117876;1187;25239;-62
2022/09/27 10:36:28;;;;;;;;;13.00;12.75;;;25.98;99684.05;;;;117915;1187;25620;-63
2022/09/27 10:38:59;;;;;;;;;14.50;12.75;;;25.98;99694.17;;;;117531;1187;25445;-63
2022/09/27 10:41:33;;;;;;;;;16.00;13.75;;;25.97;99693.63;;;;117918;1187;24827;-63
2022/09/27 10:44:19;;;;;;;;;12.50;11.75;;;25.97;99687.03;;;;117532;1187;24825;-64
2022/09/27 10:46:53;;;;;;;;;13.00;13.00;;;25.96;99690.30;;;;117909;1188;25064;-63
2022/09/27 10:49:30;;;;;;;;;14.75;14.75;;;25.95;99678.49;;;;117902;1188;24771;-63
2022/09/27 10:52:04;;;;;;;;;12.25;12.25;;;25.94;99683.59;;;;117538;1189;25104;-62
2022/09/27 10:54:35;;;;;;;;;17.75;16.75;;;25.94;99688.09;;;;117507;1189;25537;-65
2022/09/27 10:57:11;;;;;;;;;15.00;13.00;;;25.95;99684.56;;;;117545;1189;25243;-63
2022/09/27 10:59:42;;;;;;;;;11.00;11.00;;;25.96;99691.29;;;;117508;1189;25214;-64
2022/09/27 11:02:21;;;;;;;;;14.00;13.00;;;25.96;99691.34;;;;117529;1189;25657;-63
2022/09/27 11:05:03;;;;;;;;;12.50;12.00;;;25.95;99692.11;;;;117589;1188;24881;-64
2022/09/27 11:07:35;;;;;;;;;12.00;12.00;;;25.94;99690.30;;;;117539;1188;24732;-63
2022/09/27 11:10:27;;;;;;;;;12.75;11.75;;;25.93;99688.25;;;;117621;1188;24884;-64
2022/09/27 11:13:07;;;;;;;;;16.00;15.00;;;25.97;99692.52;;;;117552;1188;24879;-63
2022/09/27 11:15:58;;;;;;;;;12.50;11.25;;;25.99;99686.13;;;;117562;1188;24747;-63
2022/09/27 11:19:01;;;;;;;;;12.50;11.00;;;26.00;99688.80;;;;117773;1186;25405;-63
2022/09/27 11:21:50;;;;;;;;;13.00;10.50;;;25.99;99684.88;;;;117817;1188;25650;-62
2022/09/27 11:24:30;;;;;;;;;10.00;10.00;;;25.98;99675.02;;;;117610;1189;25056;-63
2022/09/27 11:27:04;;;;;;;;;13.25;13.25;;;26.00;99677.89;;;;117803;1187;26181;-63
2022/09/27 11:29:51;;;;;;;;;15.25;11.00;;;25.97;99678.70;;;;117879;1186;25261;-63
2022/09/27 11:32:57;;;;;;;;;14.50;11.50;;;25.95;99685.20;;;;117850;1188;25631;-63
2022/09/27 11:35:57;;;;;;;;;11.75;11.50;;;25.98;99691.13;;;;117565;1188;25410;-61
2022/09/27 11:38:31;;;;;;;;;9.50;9.00;;;26.00;99691.52;;;;117565;1188;25185;-61
2022/09/27 11:41:32;;;;;;;;;8.75;8.25;;;26.03;99686.50;;;;117608;1188;25575;-61
2022/09/27 11:44:12;;;;;;;;;10.25;10.25;;;26.05;99690.60;;;;117548;1187;25248;-62
2022/09/27 11:46:43;;;;;;;;;13.25;11.00;;;26.03;99685.98;;;;117546;1186;25748;-61
2022/09/27 11:49:20;;;;;;;;;9.00;8.00;;;26.02;99669.95;;;;117500;1188;24883;-61
2022/09/27 11:52:01;;;;;;;;;11.75;10.75;;;25.98;99654.25;;;;117559;1187;24665;-63
2022/09/27 11:54:48;;;;;;;;;10.50;9.50;;;25.95;99643.63;;;;117829;1187;25289;-61
2022/09/27 11:57:30;;;;;;;;;10.00;10.00;;;25.93;99645.77;;;;117795;1187;25382;-62
2022/09/27 12:00:16;;;;;;;;;8.67;8.33;;;25.92;99646.66;;;;117833;1186;25330;-62
2022/09/27 12:03:22;;;;;;;;;11.50;9.75;;;25.93;99656.75;;;;117868;1188;25495;-62
2022/09/27 12:06:09;;;;;;;;;8.25;8.00;;;25.90;99665.08;;;;117593;1187;25661;-62
2022/09/27 12:08:53;;;;;;;;;10.33;8.67;;;25.88;99663.67;;;;117617;1188;24723;-62
2022/09/27 12:11:36;;;;;;;;;10.33;10.00;;;25.88;99660.34;;;;117644;1187;25548;-62
2022/09/27 12:14:22;;;;;;;;;9.00;9.00;;;25.87;99665.18;;;;117904;1186;25367;-62
2022/09/27 12:16:56;;;;;;;;;14.33;11.33;;;25.88;99664.80;;;;117915;1186;25775;-62
2022/09/27 12:19:37;;;;;;;;;11.25;8.75;;;25.88;99663.89;;;;117539;1189;24899;-62
2022/09/27 12:22:11;;;;;;;;;12.33;11.00;;;25.87;99661.92;;;;117561;1187;25618;-62
2022/09/27 12:24:41;;;;;;;;;10.25;10.25;;;25.87;99659.78;;;;117837;1188;25204;-62
2022/09/27 12:27:16;;;;;;;;;10.67;8.67;;;25.88;99659.59;;;;117609;1188;25646;-61
2022/09/27 12:29:46;;;;;;;;;10.00;10.00;;;25.87;99656.13;;;;117607;1188;24825;-62
2022/09/27 12:32:22;;;;;;;;;10.25;8.50;;;25.88;99650.42;;;;117552;1188;24834;-62
2022/09/27 12:35:09;;;;;;;;;11.50;9.75;;;25.87;99651.20;;;;117887;1187;25356;-63
2022/09/27 12:37:52;;;;;;;;;9.50;9.50;;;25.88;99652.28;;;;117933;1188;25004;-65